Time;durP1;ratioP1;P1;durP2;ratioP2;P2;SDS_P1;SDS_P2;PMS_P1;PMS_P2;Temp;Humidity;BMP_temperature;BMP_pressure;BME280_temperature;BME280_humidity;BME280_pressure;Samples;Min_cycle;Max_cycle;Signal;HPM_P1;HPM_P2
2022/05/18 00:02:17;;;;;;;5.05;3.30;;;17.80;1.00;;;;;;7369727;19;20013;-60
2022/05/18 00:04:47;;;;;;;4.70;3.00;;;17.80;1.00;;;;;;7369285;19;20010;-60
2022/05/18 00:07:17;;;;;;;4.68;2.50;;;17.80;1.00;;;;;;7370460;19;20505;-59
2022/05/18 00:09:51;;;;;;;5.53;2.50;;;17.90;1.00;;;;;;7384375;19;20720;-60
2022/05/18 00:12:20;;;;;;;5.13;2.75;;;17.80;1.00;;;;;;7369853;19;20018;-60
2022/05/18 00:14:50;;;;;;;5.63;2.72;;;17.80;1.00;;;;;;7368355;19;20470;-59
2022/05/18 00:17:20;;;;;;;4.35;2.83;;;17.60;1.00;;;;;;7369919;19;20018;-60
2022/05/18 00:19:50;;;;;;;3.72;2.85;;;17.50;1.00;;;;;;7362808;19;20031;-59
2022/05/18 00:22:20;;;;;;;5.75;3.10;;;17.30;1.00;;;;;;7368726;19;20109;-59
2022/05/18 00:24:53;;;;;;;5.80;3.05;;;17.20;1.00;;;;;;7389580;19;20469;-60
2022/05/18 00:27:22;;;;;;;4.18;3.10;;;17.10;1.00;;;;;;7367527;19;20486;-61
2022/05/18 00:29:52;;;;;;;5.20;3.20;;;17.00;1.00;;;;;;7359819;19;20022;-59
2022/05/18 00:32:22;;;;;;;3.67;3.22;;;17.00;1.00;;;;;;7367563;19;20017;-59
2022/05/18 00:34:52;;;;;;;5.95;3.20;;;17.00;1.00;;;;;;7368657;19;20102;-59
2022/05/18 00:37:22;;;;;;;3.45;2.95;;;16.90;1.00;;;;;;7369415;19;20014;-59
2022/05/18 00:39:54;;;;;;;5.75;3.22;;;16.90;1.00;;;;;;7383355;19;20022;-59
2022/05/18 00:42:27;;;;;;;4.82;3.30;;;16.90;1.00;;;;;;7365564;19;20078;-59
2022/05/18 00:44:58;;;;;;;4.75;3.25;;;16.90;1.00;;;;;;7366548;19;20758;-60
2022/05/18 00:47:28;;;;;;;7.28;3.33;;;17.00;1.00;;;;;;7369243;19;20482;-59
2022/05/18 00:50:01;;;;;;;3.53;2.90;;;17.00;1.00;;;;;;7363233;19;20014;-59
2022/05/18 00:52:37;;;;;;;6.47;3.60;;;16.80;1.00;;;;;;7366296;19;20102;-59
2022/05/18 00:55:13;;;;;;;5.03;3.83;;;16.70;1.00;;;;;;7365628;19;20084;-59
2022/05/18 00:57:49;;;;;;;5.65;3.50;;;16.60;1.00;;;;;;7387364;19;20025;-59
2022/05/18 01:00:21;;;;;;;4.32;3.60;;;16.40;1.00;;;;;;7363782;19;20354;-59
2022/05/18 01:02:58;;;;;;;7.03;3.63;;;16.40;1.70;;;;;;7365551;19;20014;-59
2022/05/18 01:05:31;;;;;;;5.80;3.67;;;16.40;2.10;;;;;;7366685;19;20052;-60
2022/05/18 01:08:02;;;;;;;4.88;3.40;;;16.30;2.70;;;;;;7364415;19;20010;-60
2022/05/18 01:10:34;;;;;;;5.95;3.45;;;16.20;3.20;;;;;;7364338;19;20077;-60
2022/05/18 01:13:05;;;;;;;7.35;3.80;;;16.30;3.30;;;;;;7364193;19;20011;-60
2022/05/18 01:15:35;;;;;;;6.90;3.85;;;16.20;3.50;;;;;;7382575;19;20082;-59
2022/05/18 01:18:05;;;;;;;4.82;3.60;;;16.20;3.80;;;;;;7361865;19;20041;-59
2022/05/18 01:20:37;;;;;;;6.53;3.75;;;16.10;3.90;;;;;;7363042;19;20018;-60
2022/05/18 01:23:22;;;;;;;5.35;3.70;;;16.20;3.80;;;;;;7364457;19;20039;-60
2022/05/18 01:26:13;;;;;;;3.72;3.30;;;16.20;4.30;;;;;;7363579;19;20054;-60
2022/05/18 01:28:49;;;;;;;5.07;3.95;;;16.10;4.50;;;;;;7358621;19;20513;-60
2022/05/18 01:31:19;;;;;;;6.50;3.88;;;16.10;4.30;;;;;;7364544;19;20438;-60
2022/05/18 01:33:49;;;;;;;7.13;3.58;;;16.20;3.20;;;;;;7386591;19;20015;-60
2022/05/18 01:36:19;;;;;;;6.72;3.97;;;16.30;2.80;;;;;;7365400;19;20010;-60
2022/05/18 01:38:49;;;;;;;5.43;3.67;;;16.40;2.50;;;;;;7357350;19;20040;-60
2022/05/18 01:41:22;;;;;;;5.50;3.88;;;16.50;1.90;;;;;;7366103;19;20011;-60
2022/05/18 01:43:59;;;;;;;7.07;3.80;;;16.40;1.00;;;;;;7364569;19;20014;-60
2022/05/18 01:46:32;;;;;;;6.20;3.45;;;16.40;1.60;;;;;;7362682;19;20078;-60
2022/05/18 01:49:02;;;;;;;5.00;3.83;;;16.30;2.70;;;;;;7358902;19;20013;-60
2022/05/18 01:51:45;;;;;;;4.47;3.58;;;16.10;3.20;;;;;;7387076;19;20679;-60
2022/05/18 01:54:15;;;;;;;8.35;4.32;;;16.10;3.90;;;;;;7362906;19;20039;-60
2022/05/18 01:56:46;;;;;;;6.50;3.65;;;16.10;4.40;;;;;;7364137;19;20010;-60
2022/05/18 01:59:18;;;;;;;9.43;3.53;;;16.00;4.50;;;;;;7358547;19;20010;-60
2022/05/18 02:01:48;;;;;;;5.53;3.70;;;15.90;4.90;;;;;;7365478;19;20020;-60
2022/05/18 02:04:19;;;;;;;5.72;3.78;;;15.90;5.60;;;;;;7364420;19;20024;-60
2022/05/18 02:06:48;;;;;;;6.55;4.10;;;16.10;4.80;;;;;;7384118;19;20038;-60
2022/05/18 02:09:20;;;;;;;5.88;4.00;;;16.10;4.20;;;;;;7356599;19;21081;-60
2022/05/18 02:11:53;;;;;;;5.40;4.20;;;16.20;2.80;;;;;;7364493;19;20027;-60
2022/05/18 02:14:27;;;;;;;4.63;4.20;;;16.30;2.20;;;;;;7364496;19;20031;-60
2022/05/18 02:16:57;;;;;;;4.90;3.90;;;16.30;1.50;;;;;;7366117;19;20057;-60
2022/05/18 02:19:26;;;;;;;5.88;3.90;;;16.30;1.60;;;;;;7357850;19;20082;-60
2022/05/18 02:21:56;;;;;;;6.15;4.13;;;16.30;1.30;;;;;;7366320;19;20013;-61
2022/05/18 02:24:26;;;;;;;6.50;4.10;;;16.40;1.00;;;;;;7385997;19;20026;-60
2022/05/18 02:26:56;;;;;;;5.03;3.60;;;16.40;1.00;;;;;;7363221;19;20078;-60
2022/05/18 02:29:29;;;;;;;4.97;3.50;;;16.40;1.00;;;;;;7358290;19;20014;-60
2022/05/18 02:31:59;;;;;;;5.38;4.03;;;16.40;1.00;;;;;;7366207;19;20014;-60
2022/05/18 02:34:29;;;;;;;4.70;3.47;;;16.30;1.00;;;;;;7362395;19;20018;-60
2022/05/18 02:36:58;;;;;;;6.95;4.65;;;16.30;1.00;;;;;;7364968;19;20016;-60
2022/05/18 02:39:28;;;;;;;5.72;4.43;;;16.20;1.00;;;;;;7379102;19;20025;-60
2022/05/18 02:41:59;;;;;;;6.38;4.22;;;16.20;1.00;;;;;;7365464;19;20006;-60
2022/05/18 02:44:31;;;;;;;7.05;4.40;;;16.20;1.00;;;;;;7361318;19;20050;-60
2022/05/18 02:47:03;;;;;;;6.55;3.97;;;16.30;1.00;;;;;;7365298;19;20007;-59
2022/05/18 02:49:34;;;;;;;6.30;3.92;;;16.30;1.00;;;;;;7358396;19;20006;-60
2022/05/18 02:52:04;;;;;;;5.82;3.92;;;16.30;1.00;;;;;;7364207;19;20104;-60
2022/05/18 02:57:19;;;;;;;5.75;4.15;;;16.10;1.00;;;;;;7364369;19;20023;-60
2022/05/18 02:59:51;;;;;;;6.38;4.35;;;16.10;1.30;;;;;;7357443;19;20027;-60
2022/05/18 03:02:22;;;;;;;6.20;4.38;;;16.00;1.60;;;;;;7364085;19;20039;-60
2022/05/18 03:04:52;;;;;;;5.45;4.18;;;15.80;2.70;;;;;;7363707;19;20139;-60
2022/05/18 03:07:21;;;;;;;8.75;4.85;;;15.80;3.50;;;;;;7362820;19;20014;-60
2022/05/18 03:09:51;;;;;;;6.90;4.75;;;15.70;4.30;;;;;;7379273;19;20011;-60
2022/05/18 03:12:21;;;;;;;8.05;4.82;;;15.70;4.70;;;;;;7364431;19;20015;-60
2022/05/18 03:14:53;;;;;;;6.63;4.63;;;15.60;5.60;;;;;;7362041;19;20011;-60
2022/05/18 03:17:23;;;;;;;6.90;4.70;;;15.60;6.10;;;;;;7362666;19;20045;-60
2022/05/18 03:19:53;;;;;;;8.40;5.10;;;15.60;6.10;;;;;;7356974;19;20338;-60
2022/05/18 03:25:06;;;;;;;8.15;5.03;;;15.60;6.90;;;;;;7362863;19;20014;-60
2022/05/18 03:27:36;;;;;;;7.43;5.38;;;15.50;7.30;;;;;;7384954;19;20014;-60
2022/05/18 03:30:10;;;;;;;7.60;5.20;;;15.50;7.60;;;;;;7357820;19;20082;-60
2022/05/18 03:32:41;;;;;;;10.23;5.57;;;15.50;7.80;;;;;;7363547;19;20082;-60
2022/05/18 03:35:11;;;;;;;9.40;5.68;;;15.50;7.90;;;;;;7363976;19;20070;-60
2022/05/18 03:37:44;;;;;;;9.15;5.75;;;15.50;8.20;;;;;;7361284;19;20354;-59
2022/05/18 03:40:14;;;;;;;11.13;5.90;;;15.50;8.90;;;;;;7360113;19;20010;-60
2022/05/18 03:42:48;;;;;;;10.10;6.47;;;15.50;9.30;;;;;;7385490;19;20014;-60
2022/05/18 03:45:21;;;;;;;8.07;5.93;;;15.50;9.80;;;;;;7361502;19;20605;-61
2022/05/18 03:47:52;;;;;;;8.35;6.20;;;15.50;9.60;;;;;;7359196;19;20018;-60
2022/05/18 03:50:22;;;;;;;10.48;5.80;;;15.40;9.80;;;;;;7359396;19;20073;-60
2022/05/18 03:52:51;;;;;;;6.38;5.00;;;15.40;10.40;;;;;;7362311;19;20470;-60
2022/05/18 03:55:21;;;;;;;8.43;5.20;;;15.40;10.70;;;;;;7366950;19;20465;-60
2022/05/18 03:57:52;;;;;;;8.27;4.90;;;15.20;11.00;;;;;;7390470;19;20022;-60
2022/05/18 04:00:25;;;;;;;7.57;5.05;;;15.20;11.30;;;;;;7366506;19;20466;-60
2022/05/18 04:02:55;;;;;;;5.95;5.00;;;15.30;11.40;;;;;;7368985;19;20017;-59
2022/05/18 04:05:26;;;;;;;8.43;5.70;;;16.00;7.50;;;;;;7369565;19;20077;-60
2022/05/18 04:07:56;;;;;;;7.60;5.63;;;16.90;2.10;;;;;;7367306;19;20015;-60
2022/05/18 04:10:26;;;;;;;8.48;5.50;;;17.20;1.00;;;;;;7366625;19;20132;-60
2022/05/18 04:12:55;;;;;;;6.85;5.03;;;17.50;1.00;;;;;;7387520;19;20340;-60
2022/05/18 04:15:28;;;;;;;9.90;5.60;;;18.10;1.00;;;;;;7389964;19;20347;-60
2022/05/18 04:17:58;;;;;;;11.20;6.18;;;18.30;1.00;;;;;;7367562;19;20014;-60
2022/05/18 04:20:28;;;;;;;11.90;6.57;;;18.60;1.00;;;;;;7365520;19;20090;-60
2022/05/18 04:22:59;;;;;;;10.57;5.50;;;18.60;1.00;;;;;;7368199;19;20010;-61
2022/05/18 04:25:31;;;;;;;9.65;5.60;;;18.80;1.00;;;;;;7368281;19;20043;-61
2022/05/18 04:28:00;;;;;;;9.20;5.35;;;19.00;1.00;;;;;;7366117;19;20014;-62
2022/05/18 04:30:33;;;;;;;11.57;5.38;;;19.50;1.00;;;;;;7389004;19;20018;-60
2022/05/18 04:33:04;;;;;;;7.88;5.13;;;20.00;1.00;;;;;;7367818;19;20019;-60
2022/05/18 04:35:34;;;;;;;9.77;5.95;;;20.10;1.00;;;;;;7368910;19;20053;-60
2022/05/18 04:38:04;;;;;;;12.07;5.93;;;20.60;1.00;;;;;;7367002;19;20674;-60
2022/05/18 04:40:34;;;;;;;10.88;5.18;;;20.70;1.00;;;;;;7367449;19;20011;-60
2022/05/18 04:43:04;;;;;;;9.27;4.95;;;20.60;1.00;;;;;;7368483;19;20018;-60
2022/05/18 04:45:39;;;;;;;9.55;5.03;;;20.70;1.00;;;;;;7389007;19;20021;-60
2022/05/18 04:48:09;;;;;;;8.18;5.32;;;21.70;1.00;;;;;;7362924;19;20082;-60
2022/05/18 04:50:39;;;;;;;8.10;5.22;;;21.70;1.00;;;;;;7366559;19;20011;-60
2022/05/18 04:53:09;;;;;;;8.02;5.50;;;22.40;1.00;;;;;;7368310;19;20017;-60
2022/05/18 04:55:39;;;;;;;6.57;5.13;;;22.90;1.00;;;;;;7368737;19;20107;-60
2022/05/18 04:58:08;;;;;;;6.53;4.55;;;23.00;1.00;;;;;;7364878;19;20014;-60
2022/05/18 05:00:42;;;;;;;6.80;4.72;;;23.20;1.00;;;;;;7388858;19;20019;-59
2022/05/18 05:03:12;;;;;;;9.07;5.20;;;22.30;1.00;;;;;;7367777;19;20093;-59
2022/05/18 05:05:42;;;;;;;9.10;6.25;;;22.20;1.00;;;;;;7366921;19;20085;-60
2022/05/18 05:08:12;;;;;;;7.40;4.78;;;22.00;1.00;;;;;;7361777;19;20066;-60
2022/05/18 05:10:41;;;;;;;6.07;4.53;;;22.50;1.00;;;;;;7367475;19;20011;-60
2022/05/18 05:13:11;;;;;;;7.57;4.90;;;22.70;1.00;;;;;;7367318;19;20078;-60
2022/05/18 05:15:46;;;;;;;10.35;5.45;;;23.10;1.00;;;;;;7387850;19;20025;-60
2022/05/18 05:18:16;;;;;;;6.85;4.82;;;23.40;1.00;;;;;;7362200;19;20018;-60
2022/05/18 05:20:46;;;;;;;8.40;4.88;;;22.70;1.00;;;;;;7365733;19;20059;-60
2022/05/18 05:23:16;;;;;;;9.15;5.30;;;23.30;1.00;;;;;;7364012;19;20486;-60
2022/05/18 05:25:46;;;;;;;8.30;4.60;;;23.30;1.00;;;;;;7367412;19;20013;-60
2022/05/18 05:28:16;;;;;;;10.43;6.20;;;23.10;1.00;;;;;;7361866;19;20063;-60
2022/05/18 05:30:48;;;;;;;7.10;4.88;;;22.20;1.00;;;;;;7387758;19;20018;-60
2022/05/18 05:33:19;;;;;;;10.52;5.53;;;22.60;1.00;;;;;;7366211;19;20052;-60
2022/05/18 05:35:48;;;;;;;7.70;4.78;;;22.40;1.00;;;;;;7365549;19;20380;-60
2022/05/18 05:38:18;;;;;;;6.82;4.82;;;23.30;1.00;;;;;;7362332;19;20015;-65
2022/05/18 05:40:48;;;;;;;10.60;4.70;;;23.40;1.00;;;;;;7366114;19;20018;-60
2022/05/18 05:43:18;;;;;;;8.45;4.40;;;23.60;1.00;;;;;;7365058;19;20074;-59
2022/05/18 05:46:01;;;;;;;5.57;3.80;;;23.00;1.00;;;;;;7385849;19;20430;-59
2022/05/18 05:48:31;;;;;;;5.75;4.13;;;23.60;1.00;;;;;;7359483;19;20014;-61
2022/05/18 05:51:02;;;;;;;10.10;4.22;;;23.90;1.00;;;;;;7366560;19;20043;-60
2022/05/18 05:53:33;;;;;;;6.60;4.00;;;23.00;1.00;;;;;;7365225;19;20017;-60
2022/05/18 05:56:03;;;;;;;8.35;4.47;;;21.80;1.00;;;;;;7364834;19;20502;-61
2022/05/18 05:58:34;;;;;;;5.60;3.95;;;21.20;1.00;;;;;;7361477;19;20091;-60
2022/05/18 06:01:10;;;;;;;7.28;4.03;;;20.80;1.00;;;;;;7367573;19;20027;-60
2022/05/18 06:03:40;;;;;;;4.82;3.90;;;20.90;1.00;;;;;;7385031;19;20479;-60
2022/05/18 06:06:10;;;;;;;6.80;3.80;;;20.50;1.00;;;;;;7367023;19;20011;-60
2022/05/18 06:08:41;;;;;;;6.13;3.65;;;20.90;1.00;;;;;;7357936;19;20010;-60
2022/05/18 06:11:12;;;;;;;5.25;3.80;;;22.90;1.00;;;;;;7366476;19;20007;-61
2022/05/18 06:13:43;;;;;;;7.07;3.90;;;23.50;1.00;;;;;;7364049;19;20494;-61
2022/05/18 06:16:15;;;;;;;5.55;4.05;;;23.70;1.00;;;;;;7365920;19;20014;-61
2022/05/18 06:18:45;;;;;;;5.80;3.72;;;23.70;1.00;;;;;;7379023;19;20395;-61
2022/05/18 06:21:16;;;;;;;7.30;3.83;;;23.30;1.00;;;;;;7365234;19;20010;-60
2022/05/18 06:23:46;;;;;;;5.70;4.00;;;23.80;1.00;;;;;;7364479;19;20018;-60
2022/05/18 06:26:15;;;;;;;7.05;3.60;;;24.10;1.00;;;;;;7367348;19;20054;-60
2022/05/18 06:28:51;;;;;;;5.68;3.65;;;23.40;1.00;;;;;;7357447;19;20035;-61
2022/05/18 06:31:24;;;;;;;5.72;3.30;;;23.80;1.00;;;;;;7365320;19;20450;-60
2022/05/18 06:33:54;;;;;;;4.53;3.40;;;23.70;1.00;;;;;;7385476;19;20006;-59
2022/05/18 06:36:24;;;;;;;6.53;3.47;;;22.60;1.00;;;;;;7365203;19;20009;-60
2022/05/18 06:38:54;;;;;;;5.07;3.55;;;21.90;1.00;;;;;;7357351;19;20121;-60
2022/05/18 06:41:24;;;;;;;6.25;3.88;;;21.70;1.00;;;;;;7364973;19;20014;-60
2022/05/18 06:43:56;;;;;;;5.55;3.35;;;21.70;1.00;;;;;;7363275;19;20093;-60
2022/05/18 06:46:30;;;;;;;5.38;3.72;;;21.50;1.00;;;;;;7366525;19;20014;-60
2022/05/18 06:49:01;;;;;;;8.65;3.67;;;21.70;1.00;;;;;;7356433;19;20015;-60
2022/05/18 06:51:33;;;;;;;7.32;3.40;;;21.40;1.00;;;;;;7387301;19;20021;-60
2022/05/18 06:54:03;;;;;;;4.38;3.53;;;21.80;1.00;;;;;;7362025;19;20376;-60
2022/05/18 06:56:34;;;;;;;7.28;3.35;;;21.70;1.00;;;;;;7364533;19;20016;-60
2022/05/18 06:59:05;;;;;;;5.65;3.53;;;21.50;1.00;;;;;;7358628;19;20011;-61
2022/05/18 07:01:38;;;;;;;5.97;3.63;;;21.70;1.00;;;;;;7364722;19;20025;-60
2022/05/18 07:04:09;;;;;;;3.90;3.20;;;21.80;1.00;;;;;;7362985;19;20042;-60
2022/05/18 07:06:42;;;;;;;5.78;3.40;;;22.00;1.00;;;;;;7382878;19;20014;-59
2022/05/18 07:09:14;;;;;;;4.20;3.17;;;22.10;1.00;;;;;;7354256;19;20017;-60
2022/05/18 07:11:45;;;;;;;4.65;2.97;;;22.30;1.00;;;;;;7364183;19;20014;-60
2022/05/18 07:14:15;;;;;;;6.03;4.20;;;22.60;1.00;;;;;;7362230;19;20062;-61
2022/05/18 07:16:49;;;;;;;4.80;2.95;;;22.50;1.00;;;;;;7364815;19;20014;-60
2022/05/18 07:19:20;;;;;;;9.65;3.25;;;22.90;1.00;;;;;;7356630;19;20086;-59
2022/05/18 07:21:53;;;;;;;4.82;2.83;;;22.60;1.00;;;;;;7385627;19;20021;-61
2022/05/18 07:24:23;;;;;;;5.55;3.00;;;22.40;1.00;;;;;;7362787;19;20010;-60
2022/05/18 07:26:53;;;;;;;4.32;2.80;;;22.90;1.00;;;;;;7364773;19;20452;-60
2022/05/18 07:29:23;;;;;;;11.82;3.15;;;23.10;1.00;;;;;;7355709;19;20106;-60
2022/05/18 07:34:38;;;;;;;5.25;3.55;;;23.50;1.00;;;;;;7369123;19;20078;-60
2022/05/18 07:37:09;;;;;;;3.13;2.80;;;23.20;1.00;;;;;;7371563;19;20013;-60
2022/05/18 07:39:40;;;;;;;4.88;2.63;;;23.10;1.00;;;;;;7385041;19;20010;-60
2022/05/18 07:42:11;;;;;;;3.38;2.90;;;23.40;1.00;;;;;;7370362;19;20006;-61
2022/05/18 07:44:41;;;;;;;6.40;3.03;;;23.60;1.00;;;;;;7368363;19;20084;-60
2022/05/18 07:47:13;;;;;;;3.90;2.70;;;23.80;1.00;;;;;;7369196;19;20883;-60
2022/05/18 07:49:45;;;;;;;3.58;2.70;;;23.50;1.00;;;;;;7361546;19;20083;-61
2022/05/18 07:52:14;;;;;;;4.78;2.75;;;23.70;1.00;;;;;;7369817;19;20085;-61
2022/05/18 07:54:47;;;;;;;4.60;2.50;;;23.70;1.00;;;;;;7388064;19;20098;-61
2022/05/18 07:57:17;;;;;;;5.70;3.40;;;23.60;1.00;;;;;;7367285;19;20422;-62
2022/05/18 07:59:47;;;;;;;4.65;2.95;;;23.80;1.00;;;;;;7361649;19;20083;-61
2022/05/18 08:02:20;;;;;;;4.57;2.47;;;23.90;1.00;;;;;;7368177;19;20010;-61
2022/05/18 08:04:49;;;;;;;4.32;2.63;;;24.00;1.00;;;;;;7366861;19;20006;-61
2022/05/18 08:07:19;;;;;;;6.93;2.80;;;23.80;1.00;;;;;;7368281;19;20094;-61
2022/05/18 08:15:15;;;;;;;5.43;3.10;;;23.80;1.00;;;;;;7366457;19;20009;-61
2022/05/18 08:17:48;;;;;;;5.68;2.78;;;24.20;1.00;;;;;;7366204;19;20018;-61
2022/05/18 08:20:20;;;;;;;3.43;2.80;;;24.50;1.00;;;;;;7365479;19;20102;-61
2022/05/18 08:22:51;;;;;;;4.70;2.90;;;24.50;1.00;;;;;;7369940;19;20007;-61
2022/05/18 08:25:22;;;;;;;5.57;2.55;;;24.40;1.00;;;;;;7367454;19;20018;-61
2022/05/18 08:27:52;;;;;;;5.05;3.40;;;24.20;1.00;;;;;;7387681;19;20018;-61
2022/05/18 08:30:24;;;;;;;4.32;2.90;;;24.40;1.00;;;;;;7363671;19;20073;-60
2022/05/18 08:32:57;;;;;;;6.57;2.92;;;24.60;1.00;;;;;;7368851;19;20530;-60
2022/05/18 08:35:27;;;;;;;5.15;2.97;;;24.80;1.00;;;;;;7368345;19;20538;-60
2022/05/18 08:37:57;;;;;;;4.88;2.92;;;24.70;1.00;;;;;;7365868;19;20010;-60
2022/05/18 08:40:47;;;;;;;6.07;3.10;;;24.90;1.00;;;;;;7364067;19;20015;-61
2022/05/18 08:43:23;;;;;;;5.68;2.95;;;24.80;1.00;;;;;;7369564;19;20441;-61
2022/05/18 08:46:04;;;;;;;7.43;2.90;;;24.70;1.00;;;;;;7388256;19;20478;-61
2022/05/18 08:48:52;;;;;;;10.07;3.13;;;24.70;1.00;;;;;;7363742;19;20897;-62
2022/05/18 08:51:33;;;;;;;7.93;3.42;;;25.10;1.00;;;;;;7366758;19;20013;-61
2022/05/18 08:54:19;;;;;;;3.67;2.67;;;25.10;1.00;;;;;;7367115;19;20577;-61
2022/05/18 08:56:52;;;;;;;5.38;3.17;;;25.50;1.00;;;;;;7368761;19;20031;-61
2022/05/18 08:59:26;;;;;;;7.03;3.30;;;25.30;1.00;;;;;;7360166;19;20098;-61
2022/05/18 09:01:59;;;;;;;5.80;3.30;;;25.50;1.00;;;;;;7368478;19;20090;-61
2022/05/18 09:04:43;;;;;;;9.52;3.30;;;25.50;1.00;;;;;;7367315;19;20412;-61
2022/05/18 09:07:38;;;;;;;3.35;2.90;;;25.40;1.00;;;;;;7366729;19;20025;-60
2022/05/18 09:10:16;;;;;;;5.70;2.75;;;25.90;1.00;;;;;;7359774;19;20082;-60
2022/05/18 09:12:48;;;;;;;4.82;3.05;;;25.90;1.00;;;;;;7389879;19;20191;-60
2022/05/18 09:15:21;;;;;;;7.15;2.65;;;25.40;1.00;;;;;;7365129;19;20011;-60
2022/05/18 09:17:57;;;;;;;5.23;2.63;;;25.70;1.00;;;;;;7364823;19;20101;-60
2022/05/18 09:20:40;;;;;;;8.80;3.50;;;25.60;1.00;;;;;;7362442;19;20011;-60
2022/05/18 09:23:20;;;;;;;3.85;2.70;;;25.80;1.00;;;;;;7368483;19;20006;-60
2022/05/18 09:26:01;;;;;;;5.60;2.80;;;25.60;1.00;;;;;;7363438;19;20101;-60
2022/05/18 09:28:46;;;;;;;3.60;2.78;;;25.10;1.00;;;;;;7361846;19;21042;-60
2022/05/18 09:31:28;;;;;;;4.82;3.55;;;25.40;1.00;;;;;;7364237;19;20502;-60
2022/05/18 09:34:10;;;;;;;5.68;2.65;;;25.60;1.00;;;;;;7366384;19;20012;-61
2022/05/18 09:37:02;;;;;;;3.35;2.50;;;25.70;1.00;;;;;;7387591;19;20022;-61
2022/05/18 09:39:37;;;;;;;6.05;2.67;;;25.50;1.00;;;;;;7357360;19;20006;-60
2022/05/18 09:42:11;;;;;;;6.05;2.60;;;25.90;1.00;;;;;;7366652;19;20117;-60
2022/05/18 09:44:47;;;;;;;5.30;2.63;;;26.10;1.00;;;;;;7364555;19;20006;-60
2022/05/18 09:47:20;;;;;;;2.78;2.20;;;26.00;1.00;;;;;;7365594;19;20086;-60
2022/05/18 09:49:54;;;;;;;5.22;2.78;;;26.10;1.00;;;;;;7357842;19;20014;-61
2022/05/18 09:52:30;;;;;;;2.58;2.10;;;26.50;1.00;;;;;;7366179;19;20014;-61
2022/05/18 09:55:02;;;;;;;4.20;2.22;;;26.60;1.00;;;;;;7364509;19;20077;-62
2022/05/18 09:57:37;;;;;;;4.55;2.17;;;26.90;1.00;;;;;;7388031;19;20943;-62
2022/05/18 10:00:11;;;;;;;4.95;2.13;;;26.90;1.00;;;;;;7359732;19;20070;-61
2022/05/18 10:08:18;;;;;;;3.80;2.08;;;25.70;1.00;;;;;;7360667;19;20010;-61
2022/05/18 10:10:50;;;;;;;3.88;1.75;;;26.00;1.00;;;;;;7363042;19;20561;-61
2022/05/18 10:13:24;;;;;;;3.17;1.88;;;26.00;1.00;;;;;;7367294;19;20011;-61
2022/05/18 10:16:18;;;;;;;2.70;2.17;;;26.10;1.00;;;;;;7364240;19;20041;-61
2022/05/18 10:18:53;;;;;;;2.67;2.15;;;26.00;1.00;;;;;;7381960;19;20030;-61
2022/05/18 10:21:27;;;;;;;4.38;1.60;;;26.40;1.00;;;;;;7366133;19;20074;-61
2022/05/18 10:24:05;;;;;;;3.35;2.00;;;26.50;1.00;;;;;;7364117;19;20018;-60
2022/05/18 10:26:42;;;;;;;3.85;2.10;;;26.20;1.00;;;;;;7365615;19;20018;-60
2022/05/18 10:29:24;;;;;;;4.57;2.15;;;26.60;1.00;;;;;;7355578;19;20743;-60
2022/05/18 10:32:05;;;;;;;3.55;1.83;;;26.30;1.00;;;;;;7363928;19;20589;-60
2022/05/18 10:34:43;;;;;;;15.60;2.95;;;26.20;1.00;;;;;;7364691;19;20017;-62
2022/05/18 10:37:16;;;;;;;3.85;2.00;;;26.70;1.00;;;;;;7364924;19;20096;-64
2022/05/18 10:39:50;;;;;;;2.10;1.80;;;26.70;1.00;;;;;;7378835;19;20371;-61
2022/05/18 10:42:26;;;;;;;4.80;2.47;;;26.40;1.00;;;;;;7364532;19;20031;-61
2022/05/18 10:44:58;;;;;;;2.22;1.95;;;26.70;1.00;;;;;;7362848;19;20503;-61
2022/05/18 10:47:32;;;;;;;4.88;2.30;;;26.40;1.00;;;;;;7364299;19;20015;-61
2022/05/18 10:50:28;;;;;;;5.88;2.45;;;26.70;1.00;;;;;;7359673;19;20010;-60
2022/05/18 10:53:00;;;;;;;5.07;2.05;;;26.60;1.00;;;;;;7364395;19;20061;-61
2022/05/18 10:55:34;;;;;;;2.33;1.70;;;26.90;1.00;;;;;;7362368;19;20119;-61
2022/05/18 10:58:07;;;;;;;5.82;2.05;;;27.30;1.00;;;;;;7361185;19;20019;-61
2022/05/18 11:00:46;;;;;;;3.35;1.95;;;27.20;1.00;;;;;;7381698;19;20077;-60
2022/05/18 11:03:25;;;;;;;5.97;2.50;;;27.20;1.00;;;;;;7364454;19;20010;-61
2022/05/18 11:06:01;;;;;;;5.97;2.47;;;27.10;1.00;;;;;;7360218;19;20020;-61
2022/05/18 11:08:32;;;;;;;4.78;2.20;;;26.80;1.00;;;;;;7356517;19;20053;-61
2022/05/18 11:11:14;;;;;;;4.22;2.00;;;27.00;1.00;;;;;;7362526;19;20510;-61
2022/05/18 11:13:48;;;;;;;3.53;1.98;;;27.10;1.00;;;;;;7364653;19;20093;-60
2022/05/18 11:16:34;;;;;;;4.03;1.90;;;27.20;1.00;;;;;;7363352;19;20029;-60
2022/05/18 11:19:14;;;;;;;2.92;1.80;;;27.00;1.00;;;;;;7356320;19;20616;-61
2022/05/18 11:21:56;;;;;;;3.30;1.90;;;26.90;1.00;;;;;;7383805;19;20044;-60
2022/05/18 11:24:35;;;;;;;4.53;1.80;;;27.20;1.00;;;;;;7361186;19;20021;-60
2022/05/18 11:27:25;;;;;;;4.32;1.88;;;26.70;1.00;;;;;;7362159;19;20478;-61
2022/05/18 11:30:05;;;;;;;4.07;1.77;;;26.70;1.00;;;;;;7354635;19;20037;-60
2022/05/18 11:32:45;;;;;;;2.92;1.70;;;27.10;1.00;;;;;;7364352;19;20054;-60
2022/05/18 11:35:37;;;;;;;2.22;1.60;;;27.40;1.00;;;;;;7361565;19;20070;-61
2022/05/18 11:38:24;;;;;;;3.58;1.60;;;27.70;1.00;;;;;;7358495;19;20014;-61
2022/05/18 11:41:08;;;;;;;3.95;1.52;;;27.00;1.00;;;;;;7360466;19;20483;-61
2022/05/18 11:43:50;;;;;;;3.42;1.75;;;27.10;1.00;;;;;;7362346;19;20014;-61
2022/05/18 11:46:50;;;;;;;5.82;1.80;;;27.40;1.00;;;;;;7361916;19;20074;-61
2022/05/18 11:49:24;;;;;;;3.53;1.30;;;26.90;1.00;;;;;;7352435;19;20028;-61
2022/05/18 11:52:06;;;;;;;3.55;1.65;;;27.10;1.00;;;;;;7382040;19;20019;-61
2022/05/18 11:54:46;;;;;;;2.50;1.52;;;27.50;1.00;;;;;;7358655;19;20010;-61
2022/05/18 11:57:38;;;;;;;3.15;1.50;;;27.30;1.00;;;;;;7358035;19;20467;-61
2022/05/18 12:00:29;;;;;;;2.70;1.48;;;27.40;1.00;;;;;;7356421;19;20062;-61
2022/05/18 12:03:15;;;;;;;2.60;1.60;;;27.10;1.00;;;;;;7363136;19;20037;-61
2022/05/18 12:06:01;;;;;;;3.90;1.80;;;27.50;1.00;;;;;;7359533;19;20050;-61
2022/05/18 12:09:02;;;;;;;2.75;1.92;;;27.30;1.00;;;;;;7353733;19;20119;-60
2022/05/18 12:11:42;;;;;;;4.28;1.90;;;27.20;1.00;;;;;;7358801;19;20656;-61
2022/05/18 12:14:25;;;;;;;2.25;1.88;;;27.20;1.00;;;;;;7358743;19;20006;-61
2022/05/18 12:17:06;;;;;;;3.45;1.60;;;27.30;1.00;;;;;;7365508;19;20015;-61
2022/05/18 12:19:42;;;;;;;3.65;1.50;;;27.80;1.00;;;;;;7359570;19;20097;-60
2022/05/18 12:22:16;;;;;;;2.78;1.45;;;27.60;1.00;;;;;;7369120;19;20014;-61
2022/05/18 12:24:49;;;;;;;2.70;1.50;;;27.80;1.00;;;;;;7387372;19;20015;-61
2022/05/18 12:27:23;;;;;;;2.00;1.35;;;27.60;1.00;;;;;;7368664;19;20018;-61
2022/05/18 12:29:56;;;;;;;3.10;1.55;;;27.40;1.00;;;;;;7359235;19;20017;-61
2022/05/18 12:32:29;;;;;;;3.42;1.38;;;27.70;1.00;;;;;;7367041;19;20516;-61
2022/05/18 12:35:08;;;;;;;2.30;1.30;;;27.70;1.00;;;;;;7366675;19;20090;-61
2022/05/18 12:37:50;;;;;;;4.05;1.80;;;27.80;1.00;;;;;;7367956;19;20031;-59
2022/05/18 12:40:33;;;;;;;3.63;1.90;;;27.80;1.00;;;;;;7361403;19;20122;-62
2022/05/18 12:43:16;;;;;;;3.30;1.65;;;28.20;1.00;;;;;;7368067;19;20019;-61
2022/05/18 12:45:50;;;;;;;3.13;1.73;;;27.90;1.00;;;;;;7387297;19;20014;-60
2022/05/18 12:48:36;;;;;;;1.70;1.60;;;27.80;1.00;;;;;;7362559;19;20014;-60
2022/05/18 12:51:17;;;;;;;5.40;1.90;;;28.10;1.00;;;;;;7365846;19;20017;-60
2022/05/18 12:54:06;;;;;;;2.42;1.73;;;28.20;1.00;;;;;;7365107;19;20018;-61
2022/05/18 12:56:52;;;;;;;2.88;1.70;;;28.00;1.00;;;;;;7364503;19;20010;-60
2022/05/18 12:59:24;;;;;;;3.22;1.90;;;27.90;1.00;;;;;;7357012;19;20021;-61
2022/05/18 13:02:02;;;;;;;2.65;1.73;;;28.00;1.00;;;;;;7367092;19;20010;-60
2022/05/18 13:04:47;;;;;;;4.18;1.98;;;27.80;1.00;;;;;;7361703;19;20016;-59
2022/05/18 13:07:24;;;;;;;3.65;2.25;;;27.80;1.00;;;;;;7365471;19;20977;-61
2022/05/18 13:10:06;;;;;;;2.97;1.92;;;27.80;1.00;;;;;;7380353;19;20019;-61
2022/05/18 13:12:48;;;;;;;3.17;1.70;;;28.10;1.00;;;;;;7364892;19;20470;-61
2022/05/18 13:15:38;;;;;;;2.97;1.90;;;28.40;1.00;;;;;;7363492;19;20025;-59
2022/05/18 13:18:15;;;;;;;3.40;2.10;;;28.40;1.00;;;;;;7362039;19;20098;-61
2022/05/18 13:20:59;;;;;;;1.88;1.45;;;28.60;1.00;;;;;;7362692;19;20014;-61
2022/05/18 13:23:44;;;;;;;4.35;1.95;;;28.70;1.00;;;;;;7365247;19;20457;-59
2022/05/18 13:26:23;;;;;;;3.55;1.63;;;28.30;1.00;;;;;;7365173;19;20006;-60
2022/05/18 13:28:56;;;;;;;3.30;1.50;;;27.90;1.00;;;;;;7355180;19;20102;-60
2022/05/18 13:31:26;;;;;;;3.60;1.85;;;27.90;1.00;;;;;;7365667;19;20020;-61
2022/05/18 13:34:08;;;;;;;2.05;1.63;;;28.20;1.00;;;;;;7365402;19;20018;-61
2022/05/18 13:36:49;;;;;;;1.88;1.30;;;28.30;1.00;;;;;;7385451;19;20015;-61
2022/05/18 13:39:27;;;;;;;2.00;1.70;;;28.30;1.00;;;;;;7357062;19;20026;-60
2022/05/18 13:41:57;;;;;;;2.03;1.73;;;28.40;1.00;;;;;;7364850;19;20113;-60
2022/05/18 13:44:29;;;;;;;1.80;1.55;;;28.20;1.00;;;;;;7364037;19;20113;-61
2022/05/18 13:47:01;;;;;;;4.90;2.00;;;28.20;1.00;;;;;;7363886;19;20015;-61
2022/05/18 13:49:38;;;;;;;3.15;1.80;;;28.20;1.00;;;;;;7353640;19;20147;-61
2022/05/18 13:52:14;;;;;;;3.88;2.00;;;28.30;1.00;;;;;;7364107;19;20082;-61